createdAt,value
2018-02-20T00:02:16.328Z,19.62
2018-02-20T00:04:43.972Z,19.43
2018-02-20T00:07:12.212Z,19.08
2018-02-20T00:09:39.931Z,18.52
2018-02-20T00:12:08.008Z,20.77
2018-02-20T00:14:35.737Z,19.33
2018-02-20T00:17:03.425Z,20.37
2018-02-20T00:19:31.558Z,19.80
2018-02-20T00:21:59.913Z,19.17
2018-02-20T00:24:27.556Z,18.10
2018-02-20T00:26:55.295Z,21.43
2018-02-20T00:29:23.002Z,21.77
2018-02-20T00:31:50.683Z,22.58
2018-02-20T00:34:18.472Z,22.53
2018-02-20T00:36:46.896Z,22.83
2018-02-20T00:39:15.086Z,22.37
2018-02-20T00:41:42.805Z,23.47
2018-02-20T00:44:10.483Z,23.90
2018-02-20T00:46:38.422Z,22.83
2018-02-20T00:49:06.775Z,23.10
2018-02-20T00:51:35.761Z,23.23
2018-02-20T00:54:03.482Z,24.67
2018-02-20T00:56:31.129Z,24.35
2018-02-20T00:59:00.567Z,24.57
2018-02-20T01:01:28.261Z,24.10
2018-02-20T01:03:56.027Z,25.67
2018-02-20T01:06:23.814Z,25.60
2018-02-20T01:08:51.896Z,25.53
2018-02-20T01:11:19.924Z,26.17
2018-02-20T01:13:48.420Z,25.70
2018-02-20T01:16:16.178Z,26.77
2018-02-20T01:18:43.954Z,25.17
2018-02-20T01:21:12.643Z,23.95
2018-02-20T01:23:40.505Z,25.67
2018-02-20T01:26:09.450Z,24.10
2018-02-20T01:28:37.295Z,24.90
2018-02-20T01:31:05.407Z,25.00
2018-02-20T01:33:33.158Z,22.67
2018-02-20T01:36:00.862Z,26.98
2018-02-20T01:38:28.518Z,24.33
2018-02-20T01:40:56.214Z,25.47
2018-02-20T01:43:23.886Z,23.55
2018-02-20T01:45:51.586Z,24.10
2018-02-20T01:48:19.277Z,24.07
2018-02-20T01:50:58.710Z,25.40
2018-02-20T01:53:26.383Z,26.63
2018-02-20T01:55:54.939Z,24.67
2018-02-20T01:58:22.623Z,25.70
2018-02-20T02:00:50.599Z,24.77
2018-02-20T02:03:18.373Z,26.90
2018-02-20T02:05:46.417Z,25.30
2018-02-20T02:08:14.163Z,25.87
2018-02-20T02:10:41.878Z,26.57
2018-02-20T02:13:09.603Z,25.03
2018-02-20T02:15:37.266Z,24.43
2018-02-20T02:18:04.938Z,24.13
2018-02-20T02:20:32.622Z,24.42
2018-02-20T02:23:01.233Z,25.23
2018-02-20T02:25:28.944Z,26.35
2018-02-20T02:27:56.747Z,25.20
2018-02-20T02:30:24.418Z,26.43
2018-02-20T02:32:52.085Z,24.83
2018-02-20T02:35:19.739Z,23.60
2018-02-20T02:37:47.418Z,23.57
2018-02-20T02:40:15.165Z,24.27
2018-02-20T02:42:43.268Z,25.05
2018-02-20T02:45:10.937Z,25.50
2018-02-20T02:47:38.931Z,25.35
2018-02-20T02:50:06.659Z,21.70
2018-02-20T02:52:34.348Z,24.80
2018-02-20T02:55:02.082Z,25.03
2018-02-20T02:57:29.761Z,23.87
2018-02-20T02:59:57.500Z,24.40
2018-02-20T03:02:25.257Z,24.48
2018-02-20T03:04:52.918Z,24.15
2018-02-20T03:07:20.606Z,25.73
2018-02-20T03:09:48.254Z,22.33
2018-02-20T03:12:15.914Z,25.87
2018-02-20T03:14:43.645Z,22.63
2018-02-20T03:17:11.741Z,23.40
2018-02-20T03:19:39.389Z,24.67
2018-02-20T03:22:07.448Z,25.27
2018-02-20T03:24:35.556Z,24.87
2018-02-20T03:27:03.568Z,25.17
2018-02-20T03:29:31.231Z,24.97
2018-02-20T03:31:58.914Z,25.07
2018-02-20T03:34:27.003Z,24.90
2018-02-20T03:36:55.027Z,24.37
2018-02-20T03:39:22.706Z,24.35
2018-02-20T03:41:50.789Z,23.93
2018-02-20T03:44:18.538Z,24.43
2018-02-20T03:46:46.209Z,23.73
2018-02-20T03:49:13.908Z,24.65
2018-02-20T03:51:42.673Z,24.80
2018-02-20T03:54:10.776Z,26.13
2018-02-20T03:56:38.462Z,26.30
2018-02-20T03:59:06.562Z,25.07
2018-02-20T04:01:34.302Z,24.50
2018-02-20T04:04:01.992Z,25.55
2018-02-20T04:06:29.563Z,26.90
2018-02-20T04:08:57.612Z,24.03
2018-02-20T04:11:25.308Z,24.67
2018-02-20T04:13:53.366Z,25.05
2018-02-20T04:16:21.458Z,26.23
2018-02-20T04:18:49.187Z,26.83
2018-02-20T04:21:16.899Z,24.80
2018-02-20T04:23:44.856Z,24.67
2018-02-20T04:26:12.600Z,24.87
2018-02-20T04:28:40.715Z,27.83
2018-02-20T04:31:08.393Z,25.67
2018-02-20T04:33:36.036Z,25.87
2018-02-20T04:36:03.693Z,24.85
2018-02-20T04:38:31.458Z,26.20
2018-02-20T04:41:03.853Z,25.10
2018-02-20T04:43:31.605Z,25.90
2018-02-20T04:45:59.473Z,26.97
2018-02-20T04:48:28.432Z,25.23
2018-02-20T04:50:56.164Z,25.77
2018-02-20T04:53:23.886Z,25.62
2018-02-20T04:55:51.552Z,27.55
2018-02-20T04:58:19.275Z,26.83
2018-02-20T05:00:46.973Z,28.43
2018-02-20T05:03:14.709Z,25.05
2018-02-20T05:05:42.376Z,27.10
2018-02-20T05:08:10.102Z,26.20
2018-02-20T05:10:37.915Z,27.80
2018-02-20T05:13:05.571Z,27.10
2018-02-20T05:15:33.319Z,28.63
2018-02-20T05:18:01.033Z,27.30
2018-02-20T05:20:28.690Z,28.75
2018-02-20T05:22:56.929Z,27.47
2018-02-20T05:25:24.751Z,26.30
2018-02-20T05:27:52.410Z,26.50
2018-02-20T05:30:20.100Z,30.40
2018-02-20T05:32:47.863Z,26.45
2018-02-20T05:35:15.596Z,27.73
2018-02-20T05:37:43.276Z,28.45
2018-02-20T05:40:11.427Z,26.42
2018-02-20T05:42:39.129Z,28.80
2018-02-20T05:45:07.238Z,26.55
2018-02-20T05:47:34.956Z,27.87
2018-02-20T05:50:03.216Z,25.07
2018-02-20T05:52:31.352Z,29.15
2018-02-20T05:54:59.979Z,28.23
2018-02-20T05:57:28.061Z,25.90
2018-02-20T05:59:56.152Z,27.35
2018-02-20T06:02:24.218Z,26.77
2018-02-20T06:04:52.181Z,27.87
2018-02-20T06:07:19.827Z,26.87
2018-02-20T06:09:47.455Z,24.57
2018-02-20T06:12:15.029Z,24.93
2018-02-20T06:14:42.605Z,26.20
2018-02-20T06:17:15.638Z,26.57
2018-02-20T06:19:44.376Z,28.47
2018-02-20T06:22:12.083Z,26.80
2018-02-20T06:24:41.529Z,25.67
2018-02-20T06:30:17.718Z,27.37
2018-02-20T06:32:45.464Z,27.00
2018-02-20T06:35:14.168Z,24.98
2018-02-20T06:37:42.964Z,24.53
2018-02-20T06:40:12.791Z,27.90
2018-02-20T06:42:40.542Z,24.17
2018-02-20T06:45:11.971Z,27.02
2018-02-20T06:47:49.218Z,26.13
2018-02-20T06:50:37.045Z,25.00
2018-02-20T06:53:07.247Z,24.50
2018-02-20T06:55:38.948Z,26.83
2018-02-20T06:58:06.754Z,25.73
2018-02-20T07:00:35.746Z,26.23
2018-02-20T07:03:04.005Z,24.87
2018-02-20T07:05:34.933Z,27.95
2018-02-20T07:08:07.447Z,25.20
2018-02-20T07:10:35.895Z,25.83
2018-02-20T07:13:03.595Z,26.80
2018-02-20T07:15:33.243Z,25.77
2018-02-20T07:18:02.062Z,25.00
2018-02-20T07:20:30.802Z,29.20
2018-02-20T07:23:01.246Z,25.57
2018-02-20T07:25:32.343Z,27.17
2018-02-20T07:28:00.922Z,26.50
2018-02-20T07:30:28.665Z,25.20
2018-02-20T07:32:56.263Z,25.70
2018-02-20T07:35:24.401Z,24.83
2018-02-20T07:37:59.702Z,26.77
2018-02-20T07:40:29.467Z,25.30
2018-02-20T07:42:57.659Z,27.13
2018-02-20T07:45:25.751Z,25.97
2018-02-20T07:50:33.908Z,24.60
2018-02-20T07:53:02.540Z,25.60
2018-02-20T07:55:32.945Z,26.10
2018-02-20T07:58:02.430Z,24.20
2018-02-20T08:00:30.154Z,27.30
2018-02-20T08:02:58.680Z,27.13
2018-02-20T08:05:26.360Z,26.87
2018-02-20T08:07:55.132Z,25.50
2018-02-20T08:10:24.337Z,27.37
2018-02-20T08:12:52.045Z,26.45
2018-02-20T08:15:20.863Z,27.63
2018-02-20T08:17:48.515Z,30.57
2018-02-20T08:20:16.243Z,26.40
2018-02-20T08:22:44.720Z,28.45
2018-02-20T08:25:12.400Z,27.77
2018-02-20T08:27:41.078Z,28.07
2018-02-20T08:30:16.628Z,26.17
2018-02-20T08:32:51.979Z,27.77
2018-02-20T08:35:24.349Z,26.37
2018-02-20T08:37:55.604Z,31.30
2018-02-20T08:40:31.389Z,28.37
2018-02-20T08:43:07.135Z,27.13
2018-02-20T08:45:36.643Z,29.17
2018-02-20T08:48:05.514Z,26.67
2018-02-20T08:50:35.577Z,28.30
2018-02-20T08:53:15.426Z,27.07
2018-02-20T08:58:29.028Z,27.08
2018-02-20T09:01:00.827Z,28.00
2018-02-20T09:03:28.687Z,27.73
2018-02-20T09:05:58.642Z,28.40
2018-02-20T09:08:29.037Z,27.17
2018-02-20T09:10:57.717Z,27.85
2018-02-20T09:13:26.401Z,27.20
2018-02-20T09:15:54.066Z,28.65
2018-02-20T09:18:22.218Z,27.90
2018-02-20T09:20:52.031Z,28.12
2018-02-20T09:23:24.659Z,27.20
2018-02-20T09:25:53.905Z,27.83
2018-02-20T09:28:23.795Z,30.37
2018-02-20T09:30:52.619Z,29.10
2018-02-20T09:33:24.219Z,28.10
2018-02-20T09:35:56.711Z,28.57
2018-02-20T09:38:30.677Z,30.73
2018-02-20T09:40:58.462Z,28.33
2018-02-20T09:43:27.452Z,28.90
2018-02-20T09:45:56.976Z,27.53
2018-02-20T09:48:24.874Z,30.07
2018-02-20T09:50:52.462Z,28.40
2018-02-20T09:53:21.656Z,29.60
2018-02-20T09:55:52.741Z,28.90
2018-02-20T09:58:26.743Z,29.23
2018-02-20T10:00:54.483Z,29.20
2018-02-20T10:03:22.112Z,26.23
2018-02-20T10:05:49.673Z,26.48
2018-02-20T10:08:18.809Z,28.13
2018-02-20T10:10:46.886Z,27.60
2018-02-20T10:13:14.494Z,30.50
2018-02-20T10:15:42.076Z,29.43
2018-02-20T10:18:10.523Z,29.47
2018-02-20T10:20:39.364Z,28.75
2018-02-20T10:23:06.959Z,30.50
2018-02-20T10:25:34.959Z,28.27
2018-02-20T10:28:03.102Z,28.43
2018-02-20T10:30:30.734Z,28.37
2018-02-20T10:33:02.540Z,27.35
2018-02-20T10:35:30.127Z,29.67
2018-02-20T10:37:57.726Z,28.25
2018-02-20T10:40:25.936Z,28.10
2018-02-20T10:42:53.587Z,27.00
2018-02-20T10:45:21.214Z,28.27
2018-02-20T10:47:48.824Z,28.40
2018-02-20T10:50:16.487Z,27.77
2018-02-20T10:52:44.786Z,27.43
2018-02-20T10:59:18.596Z,27.70
2018-02-20T11:01:51.850Z,28.30
2018-02-20T11:04:21.507Z,27.07
2018-02-20T11:06:49.084Z,26.27
2018-02-20T11:09:19.812Z,27.60
2018-02-20T11:11:47.429Z,27.03
2018-02-20T11:14:17.244Z,28.43
2018-02-20T11:16:46.928Z,28.52
2018-02-20T11:19:14.671Z,27.57
2018-02-20T11:21:42.803Z,28.50
2018-02-20T11:24:11.854Z,28.50
2018-02-20T11:26:41.236Z,27.47
2018-02-20T11:29:14.958Z,25.53
2018-02-20T11:31:46.134Z,27.48
2018-02-20T11:34:16.624Z,24.27
2018-02-20T11:36:46.641Z,24.08
2018-02-20T11:39:17.586Z,26.30
2018-02-20T11:41:45.963Z,25.83
2018-02-20T11:44:15.858Z,21.67
2018-02-20T11:46:46.170Z,24.97
2018-02-20T11:49:14.964Z,25.95
2018-02-20T12:38:06.545Z,23.40
2018-02-20T12:40:38.154Z,24.40
2018-02-20T12:43:10.624Z,24.50
2018-02-20T12:45:42.985Z,27.00
2018-02-20T12:48:14.051Z,26.29
2018-02-20T12:53:50.530Z,27.20
2018-02-20T12:56:18.353Z,25.12
2018-02-20T12:59:03.313Z,24.28
2018-02-20T13:01:36.877Z,24.27
2018-02-20T13:10:13.307Z,25.55
2018-02-20T13:12:47.605Z,25.70
2018-02-20T13:15:38.617Z,28.23
2018-02-20T13:18:07.771Z,28.85
2018-02-20T13:20:40.582Z,29.80
2018-02-20T13:23:09.456Z,28.43
2018-02-20T13:25:38.230Z,30.03
2018-02-20T13:28:05.903Z,30.10
2018-02-20T13:30:33.545Z,29.90
2018-02-20T13:33:04.053Z,26.77
2018-02-20T13:35:32.301Z,26.08
2018-02-20T13:37:59.992Z,29.20
2018-02-20T13:40:28.285Z,26.15
2018-02-20T13:42:55.934Z,26.73
2018-02-20T13:45:23.926Z,27.98
2018-02-20T13:47:51.693Z,25.10
2018-02-20T13:50:19.389Z,26.15
2018-02-20T13:52:47.798Z,25.93
2018-02-20T13:55:15.776Z,23.10
2018-02-20T13:57:43.576Z,25.80
2018-02-20T14:00:11.205Z,25.30
2018-02-20T14:02:38.792Z,23.70
2018-02-20T14:05:09.583Z,27.03
2018-02-20T14:07:37.306Z,25.93
2018-02-20T14:10:04.986Z,26.70
2018-02-20T14:12:32.987Z,28.40
2018-02-20T14:15:00.753Z,27.00
2018-02-20T14:17:29.336Z,28.00
2018-02-20T14:19:57.030Z,28.30
2018-02-20T14:22:25.637Z,27.02
2018-02-20T14:24:53.313Z,27.50
2018-02-20T14:27:23.528Z,28.23
2018-02-20T14:29:52.868Z,28.27
2018-02-20T14:32:20.693Z,29.70
2018-02-20T14:34:49.373Z,29.70
2018-02-20T14:37:17.066Z,29.70
2018-02-20T14:39:46.116Z,31.77
2018-02-20T14:42:13.838Z,30.07
2018-02-20T14:44:42.625Z,28.67
2018-02-20T14:49:59.154Z,29.73
2018-02-20T14:52:26.849Z,30.00
2018-02-20T14:54:58.063Z,31.75
2018-02-20T14:57:27.684Z,29.13
2018-02-20T14:59:55.358Z,28.20
2018-02-20T15:02:23.004Z,29.73
2018-02-20T15:04:50.686Z,31.97
2018-02-20T15:07:19.157Z,30.87
2018-02-20T15:09:46.857Z,28.30
2018-02-20T15:12:15.489Z,30.73
2018-02-20T15:14:43.154Z,30.50
2018-02-20T15:17:11.447Z,31.27
2018-02-20T15:19:40.056Z,31.43
2018-02-20T15:22:09.513Z,31.77
2018-02-20T15:24:37.244Z,31.93
2018-02-20T15:27:05.337Z,31.23
2018-02-20T15:29:34.280Z,32.17
2018-02-20T15:32:03.023Z,31.87
2018-02-20T15:34:30.710Z,29.23
2018-02-20T15:36:59.687Z,30.80
2018-02-20T15:39:27.391Z,31.98
2018-02-20T15:41:55.027Z,31.23
2018-02-20T15:44:22.697Z,32.30
2018-02-20T15:46:50.452Z,30.97
2018-02-20T17:22:04.968Z,28.50
2018-02-20T17:24:33.270Z,31.00
2018-02-20T17:27:00.855Z,32.93
2018-02-20T17:29:39.253Z,32.40
2018-02-20T17:32:06.829Z,33.50
2018-02-20T17:34:34.398Z,34.97
2018-02-20T17:37:01.959Z,32.30
2018-02-20T17:39:29.528Z,34.05
2018-02-20T17:41:57.199Z,29.50
2018-02-20T17:44:24.820Z,32.38
2018-02-20T17:46:53.109Z,34.10
2018-02-20T17:49:20.704Z,34.90
2018-02-20T17:51:48.243Z,33.47
2018-02-20T17:54:15.816Z,33.30
2018-02-20T17:56:43.766Z,32.53
2018-02-20T17:59:31.322Z,34.70
2018-02-20T18:01:58.903Z,34.20
2018-02-20T18:04:26.968Z,32.72
2018-02-20T18:06:54.567Z,34.37
2018-02-20T18:09:22.119Z,35.47
2018-02-20T18:11:49.693Z,33.90
2018-02-20T18:14:17.315Z,31.47
2018-02-20T18:16:45.289Z,34.40
2018-02-20T18:19:12.842Z,31.97
2018-02-20T18:21:40.824Z,33.13
2018-02-20T18:24:10.252Z,34.30
2018-02-20T18:26:37.837Z,32.90
2018-02-20T18:29:07.053Z,33.47
2018-02-20T18:31:34.800Z,34.83
2018-02-20T18:34:02.403Z,34.90
2018-02-20T18:36:30.482Z,36.10
2018-02-20T18:38:58.711Z,35.03
2018-02-20T18:41:26.305Z,35.57
2018-02-20T18:43:53.907Z,36.67
2018-02-20T18:46:21.532Z,33.90
2018-02-20T18:48:49.665Z,33.30
2018-02-20T18:51:17.864Z,33.30
2018-02-20T18:53:47.362Z,31.20
2018-02-20T18:56:15.362Z,32.10
2018-02-20T18:58:43.614Z,33.17
2018-02-20T19:01:11.791Z,31.97
2018-02-20T19:03:39.802Z,31.50
2018-02-20T19:06:10.599Z,32.63
2018-02-20T19:08:38.653Z,31.97
2018-02-20T19:11:07.680Z,30.70
2018-02-20T19:13:47.175Z,30.92
2018-02-20T19:16:14.776Z,30.80
2018-02-20T19:18:44.424Z,31.37
2018-02-20T19:21:11.997Z,30.53
2018-02-20T19:23:39.763Z,31.83
2018-02-20T19:26:07.362Z,30.93
2018-02-20T19:28:35.318Z,31.10
2018-02-20T19:31:03.330Z,30.00
2018-02-20T19:33:30.928Z,30.57
2018-02-20T19:35:58.441Z,31.80
2018-02-20T19:38:26.009Z,32.27
2018-02-20T19:40:53.568Z,32.38
2018-02-20T19:43:21.200Z,30.90
2018-02-20T19:46:00.102Z,31.67
2018-02-20T19:48:28.528Z,30.43
2018-02-20T19:50:57.034Z,28.73
2018-02-20T19:53:24.652Z,32.30
2018-02-20T19:55:52.597Z,32.90
2018-02-20T19:58:20.163Z,32.37
2018-02-20T20:00:48.170Z,30.58
2018-02-20T20:03:17.003Z,30.60
2018-02-20T20:05:44.808Z,31.90
2018-02-20T20:08:12.399Z,32.40
2018-02-20T20:10:40.231Z,31.43
2018-02-20T20:13:07.848Z,32.45
2018-02-20T20:15:35.491Z,31.30
2018-02-20T20:18:03.146Z,32.23
2018-02-20T20:20:37.009Z,36.67
2018-02-20T20:22:58.418Z,35.30
2018-02-20T20:25:27.114Z,35.28
2018-02-20T20:27:54.823Z,34.40
2018-02-20T20:30:22.544Z,33.17
2018-02-20T20:32:50.169Z,33.10
2018-02-20T20:35:18.371Z,32.23
2018-02-20T20:37:46.302Z,33.63
2018-02-20T20:40:15.488Z,34.03
2018-02-20T20:42:44.019Z,32.90
2018-02-20T20:45:11.975Z,33.70
2018-02-20T20:47:40.191Z,37.73
2018-02-20T20:50:07.861Z,32.67
2018-02-20T20:52:36.277Z,35.20
2018-02-20T20:55:03.855Z,34.25
2018-02-20T20:57:31.483Z,34.42
2018-02-20T20:59:59.095Z,35.53
2018-02-20T21:02:26.684Z,34.33
2018-02-20T21:04:54.255Z,33.90
2018-02-20T21:07:22.692Z,30.83
2018-02-20T21:09:50.680Z,34.00
2018-02-20T21:12:18.253Z,34.37
2018-02-20T21:14:45.909Z,33.93
2018-02-20T21:17:13.958Z,36.30
2018-02-20T21:19:42.150Z,37.20
2018-02-20T21:22:09.720Z,36.47
2018-02-20T21:24:37.341Z,36.57
2018-02-20T21:27:04.906Z,37.20
2018-02-20T21:29:32.949Z,37.07
2018-02-20T21:32:00.577Z,35.97
2018-02-20T21:34:28.572Z,37.47
2018-02-20T21:36:56.502Z,34.07
2018-02-20T21:39:24.078Z,36.53
2018-02-20T21:41:51.670Z,37.45
2018-02-20T21:44:19.245Z,33.97
2018-02-20T21:46:47.724Z,35.70
2018-02-20T21:49:15.690Z,35.37
2018-02-20T21:51:43.317Z,34.60
2018-02-20T21:54:10.885Z,36.35
2018-02-20T21:56:40.032Z,35.87
2018-02-20T21:59:07.667Z,35.77
2018-02-20T22:01:40.191Z,36.13
2018-02-20T22:04:07.916Z,35.00
2018-02-20T22:06:35.916Z,38.20
2018-02-20T22:09:03.490Z,37.57
2018-02-20T22:11:31.051Z,35.30
2018-02-20T22:13:58.662Z,37.73
2018-02-20T22:16:26.259Z,37.10
2018-02-20T22:18:53.866Z,36.73
2018-02-20T22:21:21.892Z,37.77
2018-02-20T22:23:49.498Z,38.80
2018-02-20T22:26:17.069Z,40.13
2018-02-20T22:28:45.093Z,35.87
2018-02-20T22:31:19.981Z,37.00
2018-02-20T22:33:47.610Z,35.80
2018-02-20T22:36:15.240Z,35.42
2018-02-20T22:38:42.843Z,37.17
2018-02-20T22:41:10.477Z,37.92
2018-02-20T22:43:38.028Z,38.10
2018-02-20T22:46:05.716Z,37.47
2018-02-20T22:48:33.394Z,34.22
2018-02-20T22:51:00.933Z,38.50
2018-02-20T22:53:28.977Z,39.90
2018-02-20T22:55:56.557Z,35.57
2018-02-20T22:58:24.139Z,37.33
2018-02-20T23:00:51.713Z,39.23
2018-02-20T23:03:19.374Z,40.43
2018-02-20T23:05:47.319Z,41.42
2018-02-20T23:08:14.889Z,41.77
2018-02-20T23:10:42.462Z,38.37
2018-02-20T23:13:10.039Z,40.23
2018-02-20T23:15:37.976Z,40.17
2018-02-20T23:18:11.159Z,39.40
2018-02-20T23:20:38.697Z,39.83
2018-02-20T23:23:06.289Z,36.70
2018-02-20T23:28:32.270Z,35.67
2018-02-20T23:30:59.898Z,37.15
2018-02-20T23:33:28.830Z,36.50
2018-02-20T23:35:56.415Z,34.27
2018-02-20T23:38:30.323Z,33.47
2018-02-20T23:40:57.918Z,35.83
2018-02-20T23:43:25.897Z,37.37
2018-02-20T23:46:00.500Z,37.43
2018-02-20T23:48:28.489Z,34.70
2018-02-20T23:51:01.616Z,35.93
2018-02-20T23:53:29.206Z,38.00
2018-02-20T23:55:59.019Z,36.67
2018-02-20T23:58:27.465Z,39.35
